createdAt,value
2023-04-19T00:00:55.103Z,102923.91
2023-04-19T00:03:21.807Z,102912.16
2023-04-19T00:05:48.455Z,102909.47
2023-04-19T00:08:16.161Z,102897.22
2023-04-19T00:10:42.663Z,102896.28
2023-04-19T00:13:09.200Z,102899.81
2023-04-19T00:15:35.762Z,102903.47
2023-04-19T00:18:02.317Z,102890.81
2023-04-19T00:20:28.893Z,102884.50
2023-04-19T00:22:55.465Z,102897.84
2023-04-19T00:25:22.101Z,102896.84
2023-04-19T00:27:48.671Z,102885.09
2023-04-19T00:30:15.231Z,102896.66
2023-04-19T00:32:41.807Z,102884.09
2023-04-19T00:35:08.737Z,102877.88
2023-04-19T00:37:35.337Z,102877.78
2023-04-19T00:40:01.919Z,102877.69
2023-04-19T00:42:28.464Z,102870.63
2023-04-19T00:44:54.984Z,102876.94
2023-04-19T00:47:21.502Z,102895.72
2023-04-19T00:49:48.041Z,102877.69
2023-04-19T00:52:14.568Z,102890.03
2023-04-19T00:54:41.170Z,102888.16
2023-04-19T00:57:07.717Z,102892.47
2023-04-19T00:59:35.003Z,102871.13
2023-04-19T01:02:01.819Z,102875.56
2023-04-19T01:04:28.800Z,102869.25
2023-04-19T01:06:55.498Z,102888.03
2023-04-19T01:09:22.089Z,102872.94
2023-04-19T01:11:48.596Z,102874.69
2023-04-19T01:14:15.443Z,102875.44
2023-04-19T01:16:42.172Z,102891.38
2023-04-19T01:19:08.717Z,102870.97
2023-04-19T01:21:37.578Z,102879.13
2023-04-19T01:24:04.341Z,102870.16
2023-04-19T01:26:31.340Z,102875.56
2023-04-19T01:28:57.898Z,102873.03
2023-04-19T01:31:25.685Z,102884.66
2023-04-19T01:33:52.274Z,102881.09
2023-04-19T01:36:18.819Z,102872.19
2023-04-19T01:38:45.372Z,102884.72
2023-04-19T01:41:11.884Z,102872.28
2023-04-19T01:43:38.453Z,102870.50
2023-04-19T01:46:05.072Z,102881.22
2023-04-19T01:48:31.636Z,102882.13
2023-04-19T01:50:58.156Z,102867.88
2023-04-19T01:53:24.720Z,102871.59
2023-04-19T01:55:51.249Z,102863.66
2023-04-19T01:58:17.773Z,102858.25
2023-04-19T02:00:44.365Z,102865.56
2023-04-19T02:03:11.174Z,102859.25
2023-04-19T02:05:39.508Z,102849.31
2023-04-19T02:08:06.074Z,102858.16
2023-04-19T02:10:32.627Z,102841.13
2023-04-19T02:12:59.164Z,102851.59
2023-04-19T02:15:25.722Z,102850.84
2023-04-19T02:17:52.330Z,102857.03
2023-04-19T02:20:18.946Z,102856.13
2023-04-19T02:22:45.511Z,102853.25
2023-04-19T02:25:12.109Z,102862.22
2023-04-19T02:27:38.666Z,102855.91
2023-04-19T02:30:05.741Z,102857.66
2023-04-19T02:32:32.540Z,102865.63
2023-04-19T02:34:59.093Z,102852.16
2023-04-19T02:37:25.644Z,102866.44
2023-04-19T02:39:52.181Z,102868.97
2023-04-19T02:42:18.714Z,102856.38
2023-04-19T02:44:45.289Z,102858.09
2023-04-19T02:47:11.834Z,102863.50
2023-04-19T02:49:38.390Z,102855.31
2023-04-19T02:52:05.106Z,102849.09
2023-04-19T02:54:31.661Z,102850.88
2023-04-19T02:56:58.203Z,102853.47
2023-04-19T02:59:24.748Z,102863.34
2023-04-19T03:01:51.367Z,102851.72
2023-04-19T03:04:18.246Z,102863.34
2023-04-19T03:06:44.987Z,102848.06
2023-04-19T03:09:11.502Z,102865.72
2023-04-19T03:11:38.037Z,102840.00
2023-04-19T03:14:04.561Z,102835.59
2023-04-19T03:16:31.120Z,102851.59
2023-04-19T03:18:57.639Z,102857.97
2023-04-19T03:21:24.230Z,102841.78
2023-04-19T03:23:50.752Z,102844.47
2023-04-19T03:26:17.287Z,102836.28
2023-04-19T03:28:43.788Z,102832.63
2023-04-19T03:31:10.469Z,102847.72
2023-04-19T03:33:37.031Z,102829.06
2023-04-19T03:36:03.841Z,102829.97
2023-04-19T03:38:30.322Z,102835.22
2023-04-19T03:40:56.859Z,102827.97
2023-04-19T03:43:23.566Z,102845.69
2023-04-19T03:45:50.555Z,102844.84
2023-04-19T03:48:17.128Z,102836.88
2023-04-19T03:50:43.690Z,102839.56
2023-04-19T03:53:10.243Z,102832.56
2023-04-19T03:55:36.808Z,102836.97
2023-04-19T03:58:03.326Z,102814.66
2023-04-19T04:00:29.887Z,102820.81
2023-04-19T04:02:56.645Z,102814.66
2023-04-19T04:05:23.422Z,102814.59
2023-04-19T04:07:49.993Z,102822.53
2023-04-19T04:10:16.540Z,102818.09
2023-04-19T04:12:43.098Z,102818.00
2023-04-19T04:15:10.106Z,102817.13
2023-04-19T04:17:36.704Z,102827.84
2023-04-19T04:20:03.347Z,102810.88
2023-04-19T04:22:29.916Z,102808.09
2023-04-19T04:24:56.455Z,102831.22
2023-04-19T04:27:23.022Z,102817.97
2023-04-19T04:29:49.598Z,102809.00
2023-04-19T04:32:16.172Z,102821.59
2023-04-19T04:34:43.101Z,102826.13
2023-04-19T04:37:09.688Z,102811.94
2023-04-19T04:39:36.205Z,102813.78
2023-04-19T04:42:02.823Z,102818.31
2023-04-19T04:44:29.360Z,102819.44
2023-04-19T04:46:55.999Z,102825.09
2023-04-19T04:49:22.653Z,102826.03
2023-04-19T04:51:49.187Z,102814.53
2023-04-19T04:54:15.940Z,102817.34
2023-04-19T04:56:42.696Z,102822.97
2023-04-19T04:59:09.297Z,102814.13
2023-04-19T05:01:35.932Z,102820.63
2023-04-19T05:04:02.544Z,102830.44
2023-04-19T05:06:29.095Z,102827.09
2023-04-19T05:08:55.726Z,102823.75
2023-04-19T05:11:22.248Z,102816.59
2023-04-19T05:13:48.801Z,102830.00
2023-04-19T05:16:15.414Z,102814.91
2023-04-19T05:18:42.031Z,102817.81
2023-04-19T05:21:08.506Z,102813.34
2023-04-19T05:23:35.101Z,102821.47
2023-04-19T05:26:01.686Z,102824.19
2023-04-19T05:28:28.195Z,102812.72
2023-04-19T05:30:54.765Z,102810.94
2023-04-19T05:33:21.515Z,102809.31
2023-04-19T05:35:48.200Z,102806.75
2023-04-19T05:38:14.708Z,102806.81
2023-04-19T05:40:41.243Z,102806.88
2023-04-19T05:43:07.826Z,102815.06
2023-04-19T05:45:34.448Z,102800.03
2023-04-19T05:48:01.039Z,102810.81
2023-04-19T05:50:27.656Z,102807.31
2023-04-19T05:52:54.188Z,102789.72
2023-04-19T05:55:20.793Z,102798.53
2023-04-19T05:57:47.478Z,102802.06
2023-04-19T06:00:14.533Z,102803.97
2023-04-19T06:02:41.308Z,102795.16
2023-04-19T06:05:10.197Z,102797.91
2023-04-19T06:07:43.209Z,102807.91
2023-04-19T06:10:13.740Z,102810.59
2023-04-19T06:12:40.338Z,102798.16
2023-04-19T06:15:07.390Z,102789.44
2023-04-19T06:17:34.044Z,102793.13
2023-04-19T06:20:00.710Z,102795.09
2023-04-19T06:22:27.253Z,102802.31
2023-04-19T06:24:53.825Z,102798.78
2023-04-19T06:27:20.363Z,102782.00
2023-04-19T06:29:46.910Z,102778.47
2023-04-19T06:32:13.448Z,102801.66
2023-04-19T06:34:39.985Z,102782.22
2023-04-19T06:37:06.534Z,102802.72
2023-04-19T06:39:33.126Z,102786.81
2023-04-19T06:41:59.648Z,102784.41
2023-04-19T06:44:26.201Z,102790.88
2023-04-19T06:46:52.762Z,102782.94
2023-04-19T06:49:19.405Z,102775.03
2023-04-19T06:51:46.117Z,102784.84
2023-04-19T06:54:12.709Z,102787.63
2023-04-19T06:56:47.159Z,102780.44
2023-04-19T06:59:14.382Z,102767.38
2023-04-19T07:01:40.926Z,102776.34
2023-04-19T07:04:07.820Z,102769.31
2023-04-19T07:06:37.771Z,102769.28
2023-04-19T07:09:04.620Z,102766.75
2023-04-19T07:11:31.388Z,102760.75
2023-04-19T07:13:58.144Z,102772.31
2023-04-19T07:16:24.711Z,102754.53
2023-04-19T07:18:51.277Z,102771.56
2023-04-19T07:21:17.849Z,102767.19
2023-04-19T07:23:44.407Z,102753.09
2023-04-19T07:26:11.051Z,102750.56
2023-04-19T07:28:39.523Z,102745.25
2023-04-19T07:31:06.077Z,102766.63
2023-04-19T07:33:32.731Z,102765.81
2023-04-19T07:35:59.336Z,102741.00
2023-04-19T07:38:25.961Z,102744.63
2023-04-19T07:40:52.563Z,102742.88
2023-04-19T07:43:19.195Z,102737.63
2023-04-19T07:45:46.090Z,102739.47
2023-04-19T07:48:12.690Z,102746.63
2023-04-19T07:50:39.367Z,102751.09
2023-04-19T07:53:05.980Z,102747.53
2023-04-19T07:55:32.572Z,102752.03
2023-04-19T07:57:59.126Z,102741.38
2023-04-19T08:00:25.831Z,102728.91
2023-04-19T08:02:52.596Z,102724.47
2023-04-19T08:05:19.452Z,102743.19
2023-04-19T08:07:46.107Z,102738.75
2023-04-19T08:10:12.721Z,102742.31
2023-04-19T08:12:47.315Z,102729.84
2023-04-19T08:16:12.589Z,102741.38
2023-04-19T08:18:10.399Z,102732.47
2023-04-19T08:20:36.987Z,102731.53
2023-04-19T08:23:13.893Z,102727.06
2023-04-19T08:25:44.863Z,102738.59
2023-04-19T08:28:11.500Z,102718.94
2023-04-19T08:30:38.169Z,102722.47
2023-04-19T08:33:04.783Z,102717.09
2023-04-19T08:35:31.384Z,102729.44
2023-04-19T08:37:58.121Z,102729.34
2023-04-19T08:40:24.713Z,102719.50
2023-04-19T08:42:51.305Z,102723.88
2023-04-19T08:45:27.848Z,102710.38
2023-04-19T08:48:00.898Z,102705.75
2023-04-19T08:50:34.613Z,102720.84
2023-04-19T08:53:20.893Z,102708.31
2023-04-19T08:56:06.969Z,102686.81
2023-04-19T08:58:56.835Z,102701.81
2023-04-19T09:01:33.768Z,102696.22
2023-04-19T09:04:21.089Z,102685.38
2023-04-19T09:06:50.339Z,102690.63
2023-04-19T09:11:51.065Z,102685.44
2023-04-19T09:14:19.187Z,102679.28
2023-04-19T09:16:45.870Z,102672.13
2023-04-19T09:19:23.213Z,102680.97
2023-04-19T09:21:51.174Z,102672.16
2023-04-19T09:24:17.766Z,102674.69
2023-04-19T09:26:54.383Z,102662.91
2023-04-19T09:29:20.974Z,102662.72
2023-04-19T09:31:57.603Z,102671.72
2023-04-19T09:34:24.284Z,102657.84
2023-04-19T09:37:00.567Z,102662.47
2023-04-19T09:39:35.374Z,102661.75
2023-04-19T09:42:01.944Z,102648.16
2023-04-19T09:46:57.941Z,102645.72
2023-04-19T09:49:33.717Z,102637.50
2023-04-19T09:52:11.723Z,102637.47
2023-04-19T09:54:38.246Z,102638.09
2023-04-19T09:57:04.781Z,102634.47
2023-04-19T09:59:31.346Z,102635.47
2023-04-19T10:01:57.976Z,102626.56
2023-04-19T10:04:33.603Z,102634.31
2023-04-19T10:09:51.659Z,102617.59
2023-04-19T10:12:45.588Z,102627.28
2023-04-19T10:15:06.301Z,102610.25
2023-04-19T10:17:32.852Z,102608.50
2023-04-19T10:20:06.465Z,102605.00
2023-04-19T10:22:34.916Z,102619.22
2023-04-19T10:25:11.738Z,102618.31
2023-04-19T10:27:38.743Z,102611.16
2023-04-19T10:30:07.546Z,102603.19
2023-04-19T10:32:40.984Z,102589.00
2023-04-19T10:35:16.912Z,102588.09
2023-04-19T10:38:02.415Z,102598.66
2023-04-19T10:41:00.271Z,102592.13
2023-04-19T10:43:30.235Z,102572.25
2023-04-19T10:46:02.478Z,102595.28
2023-04-19T10:48:29.010Z,102597.16
2023-04-19T10:50:58.212Z,102573.09
2023-04-19T10:53:43.947Z,102582.75
2023-04-19T10:56:10.519Z,102576.69
2023-04-19T10:59:02.056Z,102584.66
2023-04-19T11:01:37.636Z,102573.03
2023-04-19T11:04:04.498Z,102547.75
2023-04-19T11:06:31.568Z,102550.34
2023-04-19T11:08:58.177Z,102567.50
2023-04-19T11:11:24.791Z,102569.25
2023-04-19T11:13:51.379Z,102545.84
2023-04-19T11:16:19.383Z,102536.56
2023-04-19T11:18:46.349Z,102555.72
2023-04-19T11:21:13.585Z,102529.09
2023-04-19T11:23:40.486Z,102542.69
2023-04-19T11:26:10.338Z,102523.88
2023-04-19T11:28:36.870Z,102538.38
2023-04-19T11:31:03.679Z,102513.28
2023-04-19T11:33:33.946Z,102522.25
2023-04-19T11:36:00.537Z,102518.94
2023-04-19T11:38:30.524Z,102526.81
2023-04-19T11:41:00.941Z,102537.25
2023-04-19T11:43:36.604Z,102519.81
2023-04-19T11:46:09.981Z,102521.06
2023-04-19T11:48:36.994Z,102517.78
2023-04-19T11:51:03.726Z,102521.31
2023-04-19T11:53:31.619Z,102507.81
2023-04-19T11:56:04.424Z,102512.03
2023-04-19T11:58:36.810Z,102515.00
2023-04-19T12:01:17.956Z,102517.97
2023-04-19T12:03:49.267Z,102506.88
2023-04-19T12:06:17.593Z,102512.91
2023-04-19T12:08:48.826Z,102514.84
2023-04-19T12:11:16.550Z,102514.25
2023-04-19T12:13:43.075Z,102508.00
2023-04-19T12:16:09.904Z,102509.41
2023-04-19T12:18:50.258Z,102501.69
2023-04-19T12:21:30.017Z,102505.50
2023-04-19T12:23:57.198Z,102521.63
2023-04-19T12:26:24.398Z,102487.09
2023-04-19T12:28:50.901Z,102486.84
2023-04-19T12:31:17.466Z,102496.72
2023-04-19T12:33:44.051Z,102494.19
2023-04-19T12:36:10.603Z,102498.47
2023-04-19T12:38:37.294Z,102479.97
2023-04-19T12:41:03.989Z,102482.66
2023-04-19T12:43:30.525Z,102489.25
2023-04-19T12:45:57.130Z,102487.53
2023-04-19T12:48:23.770Z,102476.69
2023-04-19T12:50:50.288Z,102475.38
2023-04-19T12:53:16.837Z,102489.56
2023-04-19T12:55:43.918Z,102479.94
2023-04-19T12:58:10.650Z,102480.81
2023-04-19T13:00:37.202Z,102489.41
2023-04-19T13:03:04.043Z,102478.06
2023-04-19T13:05:30.714Z,102466.41
2023-04-19T13:07:57.296Z,102460.28
2023-04-19T13:10:23.847Z,102475.34
2023-04-19T13:12:50.374Z,102480.47
2023-04-19T13:15:16.971Z,102471.66
2023-04-19T13:17:43.558Z,102453.59
2023-04-19T13:20:10.264Z,102453.19
2023-04-19T13:22:36.899Z,102462.34
2023-04-19T13:25:03.491Z,102458.88
2023-04-19T13:27:30.048Z,102459.88
2023-04-19T13:29:56.621Z,102469.47
2023-04-19T13:32:23.372Z,102454.41
2023-04-19T13:34:50.000Z,102451.66
2023-04-19T13:37:16.560Z,102434.38
2023-04-19T13:39:43.084Z,102437.34
2023-04-19T13:42:09.663Z,102448.09
2023-04-19T13:44:36.161Z,102437.00
2023-04-19T13:47:02.814Z,102421.97
2023-04-19T13:49:29.503Z,102442.84
2023-04-19T13:51:56.055Z,102432.34
2023-04-19T13:54:22.655Z,102434.31
2023-04-19T13:56:51.922Z,102437.84
2023-04-19T13:59:18.793Z,102445.53
2023-04-19T14:01:45.485Z,102437.50
2023-04-19T14:04:12.221Z,102434.25
2023-04-19T14:06:39.058Z,102441.16
2023-04-19T14:09:05.619Z,102428.44
2023-04-19T14:11:32.307Z,102424.56
2023-04-19T14:13:58.922Z,102421.63
2023-04-19T14:16:25.671Z,102414.69
2023-04-19T14:18:52.316Z,102415.25
2023-04-19T14:21:19.110Z,102419.34
2023-04-19T14:23:45.700Z,102398.38
2023-04-19T14:26:12.288Z,102415.03
2023-04-19T14:28:38.896Z,102398.31
2023-04-19T14:31:05.593Z,102412.03
2023-04-19T14:33:32.215Z,102400.34
2023-04-19T14:35:58.811Z,102413.25
2023-04-19T14:38:25.428Z,102382.78
2023-04-19T14:40:51.967Z,102397.09
2023-04-19T14:43:18.583Z,102399.25
2023-04-19T14:45:45.185Z,102398.38
2023-04-19T14:48:11.925Z,102381.16
2023-04-19T14:50:38.575Z,102392.09
2023-04-19T14:53:05.130Z,102381.16
2023-04-19T14:55:31.680Z,102389.63
2023-04-19T14:57:58.204Z,102381.28
2023-04-19T15:00:24.788Z,102366.63
2023-04-19T15:02:51.506Z,102389.22
2023-04-19T15:05:18.566Z,102384.56
2023-04-19T15:07:45.312Z,102380.22
2023-04-19T15:10:11.876Z,102382.09
2023-04-19T15:12:38.475Z,102395.84
2023-04-19T15:15:05.986Z,102370.78
2023-04-19T15:17:32.580Z,102363.16
2023-04-19T15:19:59.184Z,102360.00
2023-04-19T15:22:25.739Z,102375.75
2023-04-19T15:24:52.298Z,102370.56
2023-04-19T15:27:18.871Z,102359.59
2023-04-19T15:29:47.214Z,102366.25
2023-04-19T15:32:13.956Z,102352.56
2023-04-19T15:34:40.496Z,102359.97
2023-04-19T15:37:07.090Z,102362.63
2023-04-19T15:39:33.642Z,102346.97
2023-04-19T15:42:00.175Z,102343.28
2023-04-19T15:44:26.753Z,102350.19
2023-04-19T15:46:53.339Z,102350.00
2023-04-19T15:49:19.985Z,102346.16
2023-04-19T15:51:46.567Z,102340.88
2023-04-19T15:54:14.226Z,102329.25
2023-04-19T15:56:40.799Z,102345.59
2023-04-19T15:59:07.384Z,102340.72
2023-04-19T16:01:34.028Z,102341.75
2023-04-19T16:04:00.942Z,102338.31
2023-04-19T16:06:27.598Z,102338.22
2023-04-19T16:08:54.215Z,102336.31
2023-04-19T16:11:20.759Z,102329.69
2023-04-19T16:13:47.457Z,102328.13
2023-04-19T16:16:14.081Z,102340.06
2023-04-19T16:18:40.669Z,102319.09
2023-04-19T16:21:07.308Z,102346.81
2023-04-19T16:23:33.837Z,102332.59
2023-04-19T16:26:00.414Z,102323.91
2023-04-19T16:28:26.985Z,102345.63
2023-04-19T16:30:53.581Z,102337.41
2023-04-19T16:33:20.188Z,102343.41
2023-04-19T16:35:46.882Z,102336.19
2023-04-19T16:38:13.487Z,102342.69
2023-04-19T16:40:40.047Z,102350.81
2023-04-19T16:43:06.653Z,102344.88
2023-04-19T16:45:33.278Z,102345.88
2023-04-19T16:48:00.044Z,102348.66
2023-04-19T16:50:26.704Z,102362.09
2023-04-19T16:52:53.250Z,102336.38
2023-04-19T16:55:19.976Z,102338.28
2023-04-19T16:57:46.589Z,102341.81
2023-04-19T17:00:13.660Z,102339.03
2023-04-19T17:02:40.458Z,102348.81
2023-04-19T17:05:07.625Z,102336.50
2023-04-19T17:07:34.315Z,102339.19
2023-04-19T17:10:00.869Z,102336.50
2023-04-19T17:12:27.436Z,102321.50
2023-04-19T17:14:54.010Z,102337.53
2023-04-19T17:17:20.583Z,102329.72
2023-04-19T17:19:47.236Z,102341.34
2023-04-19T17:22:14.893Z,102337.81
2023-04-19T17:24:41.522Z,102334.34
2023-04-19T17:27:08.159Z,102324.69
2023-04-19T17:29:35.454Z,102323.06
2023-04-19T17:32:02.470Z,102333.06
2023-04-19T17:34:29.009Z,102337.56
2023-04-19T17:36:55.536Z,102326.16
2023-04-19T17:39:22.075Z,102335.91
2023-04-19T17:41:48.667Z,102322.63
2023-04-19T17:44:15.217Z,102328.91
2023-04-19T17:46:41.804Z,102332.53
2023-04-19T17:49:09.102Z,102325.44
2023-04-19T17:51:35.621Z,102337.09
2023-04-19T17:54:02.154Z,102338.03
2023-04-19T17:56:28.703Z,102344.22
2023-04-19T17:58:55.290Z,102344.38
2023-04-19T18:01:21.861Z,102344.31
2023-04-19T18:03:48.617Z,102349.63
2023-04-19T18:06:15.346Z,102352.34
2023-04-19T18:08:45.209Z,102346.22
2023-04-19T18:11:11.711Z,102348.03
2023-04-19T18:13:38.243Z,102340.97
2023-04-19T18:16:05.042Z,102337.44
2023-04-19T18:18:31.611Z,102360.53
2023-04-19T18:20:58.151Z,102344.63
2023-04-19T18:23:24.705Z,102346.41
2023-04-19T18:25:54.534Z,102334.94
2023-04-19T18:28:21.058Z,102339.44
2023-04-19T18:30:47.789Z,102350.09
2023-04-19T18:33:14.353Z,102344.78
2023-04-19T18:35:40.865Z,102334.22
2023-04-19T18:38:10.468Z,102337.81
2023-04-19T18:40:37.050Z,102344.03
2023-04-19T18:43:03.617Z,102333.41
2023-04-19T18:45:30.158Z,102331.66
2023-04-19T18:47:56.810Z,102337.84
2023-04-19T18:50:23.444Z,102344.97
2023-04-19T18:52:49.956Z,102336.13
2023-04-19T18:55:16.519Z,102332.56
2023-04-19T18:57:43.044Z,102341.41
2023-04-19T19:00:09.875Z,102344.09
2023-04-19T19:02:37.681Z,102348.53
2023-04-19T19:05:07.429Z,102340.59
2023-04-19T19:07:36.855Z,102334.34
2023-04-19T19:10:17.324Z,102353.94
2023-04-19T19:12:47.366Z,102347.72
2023-04-19T19:15:13.903Z,102330.84
2023-04-19T19:17:40.843Z,102341.50
2023-04-19T19:20:08.520Z,102331.78
2023-04-19T19:22:35.065Z,102322.88
2023-04-19T19:25:01.590Z,102318.44
2023-04-19T19:27:28.177Z,102332.63
2023-04-19T19:29:55.506Z,102330.84
2023-04-19T19:32:22.154Z,102329.09
2023-04-19T19:37:18.527Z,102313.13
2023-04-19T19:39:46.379Z,102324.66
2023-04-19T19:42:15.846Z,102317.56
2023-04-19T19:44:42.361Z,102310.50
2023-04-19T19:47:10.572Z,102320.25
2023-04-19T19:49:51.420Z,102309.59
2023-04-19T19:52:24.996Z,102306.94
2023-04-19T19:54:52.152Z,102325.59
2023-04-19T19:58:14.210Z,102331.81
2023-04-19T20:02:35.705Z,102331.78
2023-04-19T20:05:03.780Z,102327.34
2023-04-19T20:07:53.501Z,102319.31
2023-04-19T20:10:17.024Z,102329.09
2023-04-19T20:12:43.609Z,102324.66
2023-04-19T20:15:13.005Z,102319.34
2023-04-19T20:17:40.026Z,102315.84
2023-04-19T20:20:07.910Z,102330.91
2023-04-19T20:22:35.177Z,102302.47
2023-04-19T20:25:01.778Z,102318.47
2023-04-19T20:27:28.442Z,102310.47
2023-04-19T20:29:56.211Z,102298.91
2023-04-19T20:32:22.995Z,102302.50
2023-04-19T20:34:49.614Z,102289.16
2023-04-19T20:37:16.184Z,102285.63
2023-04-19T20:39:42.728Z,102301.59
2023-04-19T20:42:09.272Z,102285.63
2023-04-19T20:44:35.814Z,102312.22
2023-04-19T20:47:02.373Z,102310.47
2023-04-19T20:49:28.914Z,102286.47
2023-04-19T20:51:55.488Z,102288.28
2023-04-19T20:54:22.028Z,102281.16
2023-04-19T20:56:48.583Z,102282.94
2023-04-19T20:59:15.449Z,102289.16
2023-04-19T21:01:42.319Z,102286.47
2023-04-19T21:04:09.094Z,102280.28
2023-04-19T21:06:35.733Z,102269.66
2023-04-19T21:09:02.269Z,102265.19
2023-04-19T21:11:28.776Z,102260.78
2023-04-19T21:13:55.336Z,102279.38
2023-04-19T21:16:21.905Z,102261.63
2023-04-19T21:18:48.515Z,102257.19
2023-04-19T21:21:15.089Z,102237.66
2023-04-19T21:23:41.662Z,102243.00
2023-04-19T21:26:08.200Z,102219.03
2023-04-19T21:28:34.747Z,102226.13
2023-04-19T21:31:01.377Z,102211.88
2023-04-19T21:33:28.130Z,102224.31
2023-04-19T21:35:54.694Z,102191.47
2023-04-19T21:38:21.246Z,102225.16
2023-04-19T21:40:47.809Z,102202.13
2023-04-19T21:43:14.324Z,102204.78
2023-04-19T21:45:40.896Z,102191.47
2023-04-19T21:48:07.446Z,102180.84
2023-04-19T21:50:34.045Z,102187.91
2023-04-19T21:53:00.622Z,102195.00
2023-04-19T21:55:27.144Z,102178.09
2023-04-19T21:57:53.737Z,102174.50
2023-04-19T22:00:20.273Z,102188.75
2023-04-19T22:02:46.973Z,102163.81
2023-04-19T22:05:13.597Z,102157.59
2023-04-19T22:07:40.171Z,102168.25
2023-04-19T22:10:07.648Z,102156.66
2023-04-19T22:12:34.164Z,102141.56
2023-04-19T22:15:01.543Z,102155.78
2023-04-19T22:17:29.004Z,102133.56
2023-04-19T22:19:55.597Z,102141.50
2023-04-19T22:22:22.165Z,102164.53
2023-04-19T22:24:57.565Z,102138.81
2023-04-19T22:27:25.072Z,102167.25
2023-04-19T22:29:51.651Z,102148.66
2023-04-19T22:32:18.453Z,102154.00
2023-04-19T22:34:45.197Z,102135.47
2023-04-19T22:37:11.803Z,102158.56
2023-04-19T22:39:38.334Z,102114.22
2023-04-19T22:42:04.971Z,102143.47
2023-04-19T22:44:31.551Z,102125.69
2023-04-19T22:46:59.468Z,102112.38
2023-04-19T22:49:25.996Z,102118.59
2023-04-19T22:51:52.546Z,102090.22
2023-04-19T22:54:19.078Z,102091.06
2023-04-19T22:56:45.679Z,102108.75
2023-04-19T22:59:12.445Z,102105.22
2023-04-19T23:01:39.397Z,102091.88
2023-04-19T23:04:05.956Z,102098.91
2023-04-19T23:06:32.525Z,102094.47
2023-04-19T23:08:59.020Z,102097.19
2023-04-19T23:11:25.601Z,102090.94
2023-04-19T23:13:52.328Z,102101.56
2023-04-19T23:16:19.163Z,102086.50
2023-04-19T23:18:45.777Z,102089.22
2023-04-19T23:21:12.327Z,102075.88
2023-04-19T23:23:38.865Z,102067.97
2023-04-19T23:26:05.418Z,102055.53
2023-04-19T23:28:32.010Z,102061.75
2023-04-19T23:30:58.558Z,102059.97
2023-04-19T23:33:25.111Z,102043.97
2023-04-19T23:35:51.715Z,102033.28
2023-04-19T23:38:18.270Z,102046.59
2023-04-19T23:40:45.247Z,102036.97
2023-04-19T23:43:11.784Z,102038.75
2023-04-19T23:45:38.333Z,102035.25
2023-04-19T23:48:05.303Z,102032.53
2023-04-19T23:50:32.384Z,102025.47
2023-04-19T23:52:58.937Z,102029.88
2023-04-19T23:55:25.492Z,102044.16
2023-04-19T23:57:52.069Z,102034.44
